Terminal Aerodrome Forecast
Issued by NWS Topeka, KS

Home | Current Version | Previous Version | Text Only | Print | Product List | Glossary Off
Versions: 1 2 3 4 5 6 7 8 9 10 11 12 13 14 15 16 17 18 19 20 21 22 23 24 25 26 27 28

000
FTUS43 KTOP 281436 AAA
TAFTOP
TAF AMD
KTOP 281436Z 2815/2912 28012KT P6SM SCT017 BKN030
     FM281600 31009KT P6SM SCT035 SCT100
     FM290000 02005KT P6SM SCT100
     FM290900 05008KT P6SM VCSH SCT025 BKN100=

USA.gov is the U.S. government's official web portal to all federal, state and local government web resources and services.